Terminal Aerodrome Forecast
Issued by NWS Chicago, IL

Current Version | Previous Version | Text Only | Print | Product List | Glossary On
Versions: 1 2 3 4 5 6 7 8 9 10 11 12 13 14 15 16 17 18 19 20 21 22 23 24
518
FTUS43 KLOT 221125
TAFRFD
TAF
KRFD 221125Z 2212/2312 21010KT P6SM VCSH BKN130
     FM221400 22015G24KT P6SM SCT040 BKN200
     FM230500 23012KT P6SM -SHRA SCT010 BKN020 BKN050
      TEMPO 2305/2306 4SM -TSRA BKN015CB BKN050
     FM231000 33008KT P6SM SCT015 BKN050=

USA.gov is the U.S. government's official web portal to all federal, state and local government web resources and services.